Time;durP1;ratioP1;P1;durP2;ratioP2;P2;SDS_P1;SDS_P2;PMS_P1;PMS_P2;Temp;Humidity;BMP_temperature;BMP_pressure;BME280_temperature;BME280_humidity;BME280_pressure;Samples;Min_cycle;Max_cycle;Signal;HPM_P1;HPM_P2
2023/05/18 00:01:13;;;;;;;15.20;4.90;;;;;;;10.05;58.34;100962.56;5020623;28;20056;-77
2023/05/18 00:03:38;;;;;;;14.70;5.30;;;;;;;10.10;58.21;100961.88;5020956;28;20037;-77
2023/05/18 00:06:05;;;;;;;8.80;4.05;;;;;;;10.11;58.37;100958.91;5020753;28;20046;-77
2023/05/18 00:08:32;;;;;;;9.10;3.58;;;;;;;10.22;57.50;100964.63;5020344;28;20056;-77
2023/05/18 00:10:57;;;;;;;8.60;3.45;;;;;;;10.08;58.09;100955.81;5020313;28;20933;-76
2023/05/18 00:13:22;;;;;;;15.27;5.97;;;;;;;10.23;58.35;100955.41;5020959;28;20026;-77
2023/05/18 00:15:47;;;;;;;10.43;4.43;;;;;;;10.20;58.06;100955.84;5020402;28;20558;-76
2023/05/18 00:18:13;;;;;;;14.10;5.03;;;;;;;10.06;58.69;100961.50;5020189;28;20036;-76
2023/05/18 00:20:38;;;;;;;11.30;4.37;;;;;;;9.99;59.24;100956.16;5020632;28;21725;-77
2023/05/18 00:23:05;;;;;;;8.00;3.83;;;;;;;9.91;59.51;100956.47;5020709;28;20282;-77
2023/05/18 00:25:30;;;;;;;14.52;4.32;;;;;;;9.76;59.59;100956.91;5020572;28;20052;-76
2023/05/18 00:27:55;;;;;;;8.02;4.20;;;;;;;9.72;60.15;100956.53;5020491;28;20394;-77
2023/05/18 00:30:22;;;;;;;13.17;4.93;;;;;;;9.55;60.92;100951.72;5021011;28;20037;-76
2023/05/18 00:32:48;;;;;;;12.13;4.60;;;;;;;9.51;60.74;100949.66;5020950;28;20262;-76
2023/05/18 00:35:13;;;;;;;9.90;3.65;;;;;;;9.51;61.10;100960.56;5022388;28;20372;-76
2023/05/18 00:37:38;;;;;;;14.80;4.23;;;;;;;9.45;61.47;100957.69;5024732;28;20037;-77
2023/05/18 00:40:05;;;;;;;13.23;4.93;;;;;;;9.33;61.46;100956.78;5023784;28;20314;-77
2023/05/18 00:42:30;;;;;;;12.25;4.45;;;;;;;9.34;61.72;100951.09;5024658;28;20259;-76
2023/05/18 00:44:55;;;;;;;13.10;5.13;;;;;;;9.37;61.74;100949.84;5024655;28;20026;-77
2023/05/18 00:47:21;;;;;;;16.93;6.43;;;;;;;9.27;61.67;100955.81;5024288;28;20039;-77
2023/05/18 00:49:46;;;;;;;12.57;5.10;;;;;;;9.29;61.73;100955.56;5023727;28;20336;-77
2023/05/18 00:52:12;;;;;;;15.38;4.72;;;;;;;9.26;61.77;100956.00;5023800;28;20091;-77
2023/05/18 00:54:37;;;;;;;15.43;5.18;;;;;;;9.30;61.60;100963.50;5024378;28;20061;-76
2023/05/18 00:57:04;;;;;;;12.43;4.80;;;;;;;9.38;61.27;100962.38;5023773;28;20124;-77
2023/05/18 00:59:29;;;;;;;13.82;4.28;;;;;;;9.40;61.20;100965.69;5023051;28;20274;-76
2023/05/18 01:01:55;;;;;;;10.82;4.43;;;;;;;9.42;61.36;100960.84;5024723;28;20025;-78
2023/05/18 01:04:20;;;;;;;15.50;5.22;;;;;;;9.44;61.13;100957.91;5023966;28;20040;-77
2023/05/18 01:06:46;;;;;;;11.05;4.22;;;;;;;9.42;60.92;100958.13;5024084;28;20030;-77
2023/05/18 01:09:13;;;;;;;15.05;5.25;;;;;;;9.42;61.46;100963.56;5023142;28;20495;-77
2023/05/18 01:11:49;;;;;;;10.50;4.53;;;;;;;9.40;61.10;100954.81;5022963;28;20044;-78
2023/05/18 01:14:36;;;;;;;13.75;5.43;;;;;;;9.45;61.05;100963.13;5023584;28;20025;-77
2023/05/18 01:17:32;;;;;;;7.97;4.15;;;;;;;9.44;60.47;100950.56;5023474;28;20131;-77
2023/05/18 01:20:13;;;;;;;14.13;5.43;;;;;;;9.51;60.53;100955.09;5023257;28;20041;-77
2023/05/18 01:22:49;;;;;;;13.98;5.30;;;;;;;9.55;60.59;100967.19;5023916;28;20029;-77
2023/05/18 01:25:53;;;;;;;15.98;5.32;;;;;;;9.55;60.32;100956.31;5021784;28;20164;-77
2023/05/18 01:28:29;;;;;;;11.50;5.00;;;;;;;9.52;60.40;100956.78;5021862;28;20048;-77
2023/05/18 01:30:55;;;;;;;19.45;5.35;;;;;;;9.59;60.26;100957.53;5023401;28;20041;-77
2023/05/18 01:33:20;;;;;;;17.52;5.00;;;;;;;9.68;60.14;100961.59;5023146;28;20038;-77
2023/05/18 01:35:48;;;;;;;12.80;6.05;;;;;;;9.77;59.30;100964.00;5023288;28;20040;-77
2023/05/18 01:38:19;;;;;;;11.23;5.35;;;;;;;9.68;59.87;100961.59;5022684;28;20122;-77
2023/05/18 01:41:21;;;;;;;12.48;5.75;;;;;;;9.66;59.79;100960.97;5023189;28;20542;-77
2023/05/18 01:44:03;;;;;;;13.30;5.05;;;;;;;9.58;60.76;100961.28;5023173;28;20064;-77
2023/05/18 01:47:05;;;;;;;14.98;5.93;;;;;;;9.59;60.24;100957.53;5021969;28;20605;-77
2023/05/18 01:49:55;;;;;;;12.73;4.72;;;;;;;9.64;60.42;100956.84;5022598;28;20042;-77
2023/05/18 01:52:31;;;;;;;14.77;5.68;;;;;;;9.52;60.12;100957.59;5022988;28;20052;-76
2023/05/18 01:55:01;;;;;;;11.98;4.63;;;;;;;9.41;60.55;100956.47;5022919;28;20043;-77
2023/05/18 01:57:30;;;;;;;13.30;4.97;;;;;;;9.38;61.26;100962.38;5022892;28;20056;-77
2023/05/18 01:59:58;;;;;;;10.57;5.38;;;;;;;9.39;61.11;100958.59;5022266;28;20052;-77
2023/05/18 02:02:25;;;;;;;11.98;4.85;;;;;;;9.38;61.00;100956.91;5022273;28;20099;-77
2023/05/18 02:04:50;;;;;;;14.63;5.40;;;;;;;9.41;61.27;100961.94;5022690;28;20494;-77
2023/05/18 02:07:15;;;;;;;13.85;5.30;;;;;;;9.31;61.58;100950.75;5022173;28;20029;-77
2023/05/18 02:09:41;;;;;;;12.80;5.13;;;;;;;9.21;61.79;100956.72;5022364;28;21133;-77
2023/05/18 02:12:07;;;;;;;26.70;9.13;;;;;;;9.22;62.09;100956.47;5022115;28;20350;-77
2023/05/18 02:14:32;;;;;;;18.08;6.07;;;;;;;9.22;62.18;100953.75;5022522;28;20079;-76
2023/05/18 02:16:58;;;;;;;19.95;5.35;;;;;;;9.20;62.14;100955.03;5020866;28;20037;-78
2023/05/18 02:19:24;;;;;;;8.93;4.50;;;;;;;9.26;61.91;100964.19;5021898;28;20038;-77
2023/05/18 02:21:49;;;;;;;14.82;5.70;;;;;;;9.13;62.10;100957.00;5022133;28;20501;-77
2023/05/18 02:24:16;;;;;;;17.83;7.18;;;;;;;9.11;62.31;100960.78;5022109;28;20935;-77
2023/05/18 02:26:41;;;;;;;14.18;6.03;;;;;;;9.14;62.25;100961.38;5022524;28;20086;-76
2023/05/18 02:29:10;;;;;;;17.63;6.23;;;;;;;9.19;62.26;100965.06;5021446;28;20082;-76
2023/05/18 02:31:35;;;;;;;18.80;6.85;;;;;;;9.03;62.49;100954.81;5022652;28;20262;-77
2023/05/18 02:34:01;;;;;;;16.23;6.53;;;;;;;8.90;63.26;100953.88;5022135;28;20419;-77
2023/05/18 02:36:27;;;;;;;17.05;7.60;;;;;;;8.84;63.32;100968.38;5022246;28;20025;-76
2023/05/18 02:38:52;;;;;;;21.80;7.15;;;;;;;8.75;63.89;100959.66;5021586;28;20041;-76
2023/05/18 02:41:17;;;;;;;14.30;5.60;;;;;;;8.57;63.98;100971.31;5022337;28;20033;-79
2023/05/18 02:43:42;;;;;;;14.67;6.53;;;;;;;8.63;64.54;100973.16;5022251;28;20562;-79
2023/05/18 02:46:08;;;;;;;28.83;7.53;;;;;;;8.68;63.88;100976.06;5021657;28;20254;-79
2023/05/18 02:48:33;;;;;;;12.07;5.20;;;;;;;8.59;64.29;100971.94;5021681;28;20266;-79
2023/05/18 02:50:58;;;;;;;12.95;5.25;;;;;;;8.58;64.34;100971.13;5020786;28;20884;-80
2023/05/18 02:53:24;;;;;;;15.35;6.00;;;;;;;8.58;64.43;100975.72;5022050;28;20025;-79
2023/05/18 02:55:55;;;;;;;16.38;6.65;;;;;;;8.57;64.37;100980.31;5022249;28;20501;-79
2023/05/18 02:58:24;;;;;;;15.07;6.95;;;;;;;8.66;64.13;100977.31;5022449;28;20038;-79
2023/05/18 03:00:51;;;;;;;18.23;7.20;;;;;;;8.54;64.44;100983.44;5021736;28;20033;-80
2023/05/18 03:03:17;;;;;;;12.25;6.18;;;;;;;8.45;65.08;100982.88;5020270;28;20041;-79
2023/05/18 03:05:42;;;;;;;18.90;7.55;;;;;;;8.45;65.18;100980.16;5021625;28;20107;-79
2023/05/18 03:08:09;;;;;;;11.70;5.88;;;;;;;8.37;65.11;100991.28;5021077;28;20354;-78
2023/05/18 03:10:35;;;;;;;16.58;5.80;;;;;;;8.32;65.44;100985.69;5037109;28;20122;-79
2023/05/18 03:13:01;;;;;;;11.35;6.03;;;;;;;8.28;65.37;100988.84;5021143;28;20068;-79
2023/05/18 03:15:30;;;;;;;14.20;6.25;;;;;;;8.24;65.56;100979.47;5036010;28;20550;-79
2023/05/18 03:17:55;;;;;;;15.57;7.53;;;;;;;8.22;65.25;100978.84;5021241;28;20735;-79
2023/05/18 03:20:21;;;;;;;15.13;5.57;;;;;;;8.27;65.32;100973.59;5021207;28;20037;-80
2023/05/18 03:22:46;;;;;;;16.80;6.10;;;;;;;8.23;65.55;100985.13;5021349;28;20672;-80
2023/05/18 03:25:13;;;;;;;14.67;6.80;;;;;;;8.22;65.49;100989.72;5021453;28;20144;-80
2023/05/18 03:27:39;;;;;;;15.15;6.22;;;;;;;8.35;65.38;100990.69;5021358;28;20282;-79
2023/05/18 03:30:04;;;;;;;13.00;6.83;;;;;;;8.43;64.78;100978.72;5020917;28;20072;-80
2023/05/18 03:32:31;;;;;;;13.35;5.80;;;;;;;8.31;65.52;100986.75;5019903;28;20259;-80
2023/05/18 03:34:56;;;;;;;15.02;6.75;;;;;;;8.37;64.99;100984.00;5021511;28;20103;-80
2023/05/18 03:37:21;;;;;;;21.27;6.75;;;;;;;8.36;65.25;100986.94;5021147;28;20034;-79
2023/05/18 03:39:47;;;;;;;30.97;7.43;;;;;;;8.39;65.07;100978.31;5020739;28;20222;-80
2023/05/18 03:42:12;;;;;;;18.83;5.85;;;;;;;8.32;65.31;100989.22;5020805;28;20267;-79
2023/05/18 03:44:37;;;;;;;18.30;6.37;;;;;;;8.35;64.91;100987.97;5021321;28;20040;-80
2023/05/18 03:47:03;;;;;;;13.40;5.70;;;;;;;8.19;65.50;100984.72;5020973;28;20255;-80
2023/05/18 03:49:29;;;;;;;16.48;8.00;;;;;;;8.20;65.52;100986.38;5020931;28;20370;-79
2023/05/18 03:51:55;;;;;;;29.17;7.30;;;;;;;8.21;65.84;100982.63;5021167;28;20147;-79
2023/05/18 03:54:20;;;;;;;13.70;6.75;;;;;;;8.13;66.18;100991.88;5021190;28;20065;-80
2023/05/18 03:56:46;;;;;;;19.52;6.30;;;;;;;8.04;66.28;100988.56;5021050;28;20541;-79
2023/05/18 03:59:11;;;;;;;12.90;7.03;;;;;;;7.98;66.59;100988.59;5020320;28;20037;-79
2023/05/18 04:01:37;;;;;;;15.60;6.38;;;;;;;7.98;66.49;100986.72;5020935;28;21010;-79
2023/05/18 04:04:02;;;;;;;19.08;6.47;;;;;;;7.95;67.22;100992.59;5021152;28;20505;-79
2023/05/18 04:06:27;;;;;;;21.15;7.97;;;;;;;7.96;67.41;100991.53;5021219;28;20033;-80
2023/05/18 04:08:53;;;;;;;15.33;7.27;;;;;;;8.03;67.36;100992.31;5021409;28;20037;-80
2023/05/18 04:11:20;;;;;;;17.95;7.03;;;;;;;8.05;67.15;100995.66;5024706;28;20262;-79
2023/05/18 04:13:46;;;;;;;19.63;7.53;;;;;;;8.06;67.26;100994.63;5025326;28;20042;-79
2023/05/18 04:16:12;;;;;;;12.82;6.80;;;;;;;8.03;66.92;100994.22;5024091;28;20049;-79
2023/05/18 04:18:38;;;;;;;15.27;8.82;;;;;;;7.99;67.54;100995.72;5024255;28;20696;-78
2023/05/18 04:21:05;;;;;;;22.15;7.05;;;;;;;8.01;67.28;100999.88;5024730;28;20033;-78
2023/05/18 04:23:32;;;;;;;13.50;6.53;;;;;;;8.10;67.48;101002.31;5024878;28;20037;-80
2023/05/18 04:25:57;;;;;;;19.10;8.00;;;;;;;8.17;67.40;101005.84;5024572;28;20733;-79
2023/05/18 04:28:22;;;;;;;33.78;8.35;;;;;;;8.32;66.52;101000.09;5023997;28;20128;-80
2023/05/18 04:30:48;;;;;;;15.30;7.80;;;;;;;8.31;66.90;101003.88;5024749;28;20037;-79
2023/05/18 04:33:14;;;;;;;13.37;6.33;;;;;;;8.31;66.76;101001.16;5024475;28;20438;-80
2023/05/18 04:35:40;;;;;;;15.13;7.18;;;;;;;8.42;66.39;101005.03;5024205;28;21050;-80
2023/05/18 04:38:05;;;;;;;17.77;6.75;;;;;;;8.26;66.62;101007.25;5024008;28;20030;-80
2023/05/18 04:40:32;;;;;;;12.00;5.87;;;;;;;8.28;67.16;101009.75;5022685;28;20029;-80
2023/05/18 04:42:59;;;;;;;17.20;7.20;;;;;;;8.51;66.62;101016.50;5024480;28;20251;-80
2023/05/18 04:45:24;;;;;;;20.65;8.02;;;;;;;8.72;65.33;101003.63;5024311;28;20025;-80
2023/05/18 04:47:53;;;;;;;20.05;9.00;;;;;;;8.70;65.22;101013.88;5024521;28;20087;-80
2023/05/18 04:50:19;;;;;;;13.35;6.43;;;;;;;8.75;65.22;101009.44;5039211;28;20558;-80
2023/05/18 04:52:47;;;;;;;19.02;7.70;;;;;;;8.72;65.47;101012.63;5024753;28;20034;-80
2023/05/18 04:55:24;;;;;;;20.45;7.95;;;;;;;8.86;64.78;101009.78;5024115;28;20041;-79
2023/05/18 04:57:52;;;;;;;18.08;7.78;;;;;;;8.88;64.78;101013.09;5039442;28;20025;-79
2023/05/18 05:00:19;;;;;;;15.35;6.78;;;;;;;8.93;64.86;101010.53;5023806;28;20041;-80
2023/05/18 05:02:44;;;;;;;17.83;6.95;;;;;;;9.00;64.56;101013.22;5024502;28;20233;-80
2023/05/18 05:05:10;;;;;;;18.10;7.80;;;;;;;9.05;63.86;101012.53;5024232;28;20550;-80
2023/05/18 05:07:35;;;;;;;25.33;8.48;;;;;;;9.03;64.11;101009.22;5024430;28;20034;-79
2023/05/18 05:10:00;;;;;;;21.53;8.13;;;;;;;9.00;64.39;101015.94;5024226;28;20052;-79
2023/05/18 05:12:26;;;;;;;16.52;7.10;;;;;;;8.98;64.46;101013.44;5024133;28;20261;-80
2023/05/18 05:14:51;;;;;;;18.38;8.38;;;;;;;9.04;64.69;101019.03;5023868;28;20050;-80
2023/05/18 05:17:16;;;;;;;19.53;7.97;;;;;;;9.19;63.90;101019.50;5024134;28;20804;-80
2023/05/18 05:19:41;;;;;;;22.20;8.67;;;;;;;9.29;63.33;101010.00;5023607;28;20259;-79
2023/05/18 05:22:07;;;;;;;14.30;7.13;;;;;;;9.22;63.58;101010.91;5022607;28;20262;-80
2023/05/18 05:24:32;;;;;;;18.40;7.35;;;;;;;9.25;62.94;101011.50;5023894;28;20854;-80
2023/05/18 05:26:57;;;;;;;22.63;8.87;;;;;;;9.24;63.40;101016.13;5023518;28;20033;-79
2023/05/18 05:29:25;;;;;;;17.30;8.37;;;;;;;9.20;63.73;101015.75;5022980;28;20271;-79
2023/05/18 05:31:50;;;;;;;17.73;8.85;;;;;;;9.31;63.58;101018.78;5023542;28;20259;-80
2023/05/18 05:34:15;;;;;;;22.02;8.60;;;;;;;9.30;63.49;101007.06;5023576;28;20548;-79
2023/05/18 05:36:40;;;;;;;16.53;7.97;;;;;;;9.35;63.74;101011.81;5023405;28;20029;-80
2023/05/18 05:39:06;;;;;;;15.20;6.93;;;;;;;9.45;63.02;101017.59;5022684;28;20263;-79
2023/05/18 05:41:31;;;;;;;18.60;6.95;;;;;;;9.50;63.09;101011.44;5023740;28;20329;-80
2023/05/18 05:43:57;;;;;;;12.48;7.32;;;;;;;9.50;62.75;101008.72;5023486;28;20044;-80
2023/05/18 05:46:23;;;;;;;18.88;7.43;;;;;;;9.66;62.40;101015.44;5023285;28;20091;-79
2023/05/18 05:48:48;;;;;;;18.65;8.35;;;;;;;9.65;62.35;101021.13;5022759;28;20040;-79
2023/05/18 05:51:13;;;;;;;23.50;9.87;;;;;;;9.64;62.51;101020.28;5022961;28;20033;-79
2023/05/18 05:53:39;;;;;;;15.70;7.03;;;;;;;9.79;61.69;101011.72;5023441;28;20394;-80
2023/05/18 05:56:06;;;;;;;14.65;6.38;;;;;;;9.86;61.58;101016.25;5021606;28;20756;-80
2023/05/18 05:58:32;;;;;;;16.73;7.80;;;;;;;9.87;61.41;101017.91;5022737;28;20155;-79
2023/05/18 06:00:57;;;;;;;20.90;7.17;;;;;;;9.91;61.11;101019.97;5023227;28;20417;-79
2023/05/18 06:03:22;;;;;;;15.20;7.03;;;;;;;9.85;61.79;101020.88;5022685;28;20270;-77
2023/05/18 06:05:47;;;;;;;12.73;6.10;;;;;;;9.93;61.21;101033.34;5023497;28;20270;-78
2023/05/18 06:08:13;;;;;;;15.60;6.75;;;;;;;10.06;61.07;101021.44;5023182;28;20855;-80
2023/05/18 06:10:39;;;;;;;17.63;6.43;;;;;;;10.08;60.34;101032.13;5023151;28;20080;-80
2023/05/18 06:13:05;;;;;;;16.65;6.93;;;;;;;10.21;60.43;101029.19;5024374;28;20399;-79
2023/05/18 06:15:31;;;;;;;26.52;7.95;;;;;;;10.25;60.10;101024.94;5023819;28;20049;-79
2023/05/18 06:17:56;;;;;;;17.47;6.60;;;;;;;10.24;60.46;101027.91;5023858;28;20045;-81
2023/05/18 06:20:21;;;;;;;12.03;6.00;;;;;;;10.25;60.25;101022.22;5022701;28;20298;-81
2023/05/18 06:22:46;;;;;;;17.23;6.80;;;;;;;10.27;59.72;101022.81;5023911;28;20267;-80
2023/05/18 06:25:12;;;;;;;13.63;5.37;;;;;;;10.48;59.26;101017.06;5023870;28;20286;-80
2023/05/18 06:27:37;;;;;;;16.23;5.40;;;;;;;10.48;58.78;101022.53;5039272;28;20267;-79
2023/05/18 06:30:04;;;;;;;20.30;7.60;;;;;;;10.39;58.88;101035.69;5023422;28;20317;-77
2023/05/18 06:32:29;;;;;;;14.52;7.00;;;;;;;10.35;59.30;101031.75;5022022;28;20806;-77
2023/05/18 06:34:55;;;;;;;15.02;7.03;;;;;;;10.40;58.74;101031.88;5023392;28;20128;-77
2023/05/18 06:37:20;;;;;;;18.08;8.23;;;;;;;10.64;58.33;101042.88;5023194;28;20025;-77
2023/05/18 06:39:45;;;;;;;13.05;6.53;;;;;;;10.60;58.63;101037.06;5022551;28;20502;-76
2023/05/18 06:42:11;;;;;;;13.50;5.90;;;;;;;10.70;58.47;101041.13;5022868;28;20384;-76
2023/05/18 06:44:36;;;;;;;16.33;5.88;;;;;;;10.63;58.09;101046.69;5023237;28;20263;-77
2023/05/18 06:47:01;;;;;;;19.80;8.87;;;;;;;10.69;58.24;101050.34;5023265;28;20410;-76
2023/05/18 06:49:27;;;;;;;13.00;6.53;;;;;;;10.79;57.41;101045.16;5023005;28;20324;-76
2023/05/18 06:51:52;;;;;;;12.98;6.60;;;;;;;10.76;58.47;101045.63;5023125;28;20302;-76
2023/05/18 06:54:17;;;;;;;12.20;5.30;;;;;;;10.67;58.36;101039.69;5022520;28;20141;-78
2023/05/18 06:56:42;;;;;;;12.57;6.20;;;;;;;10.79;57.77;101039.72;5022972;28;20278;-75
2023/05/18 06:59:08;;;;;;;16.08;6.68;;;;;;;10.89;57.33;101039.13;5022341;28;20340;-76
2023/05/18 07:01:33;;;;;;;15.85;6.53;;;;;;;10.77;58.09;101043.72;5022504;28;20095;-77
2023/05/18 07:03:58;;;;;;;19.57;8.07;;;;;;;10.86;58.47;101047.78;5022781;28;20061;-76
2023/05/18 07:06:24;;;;;;;11.23;5.77;;;;;;;11.12;57.41;101051.13;5022888;28;20279;-77
2023/05/18 07:08:49;;;;;;;17.00;5.32;;;;;;;11.28;56.54;101038.66;5022285;28;20271;-77
2023/05/18 07:11:14;;;;;;;15.85;5.88;;;;;;;11.13;57.23;101035.56;5022012;28;20041;-76
2023/05/18 07:13:40;;;;;;;15.90;5.70;;;;;;;11.06;56.98;101039.28;5022875;28;20037;-76
2023/05/18 07:16:05;;;;;;;10.55;5.43;;;;;;;11.13;56.16;101039.13;5022416;28;20283;-75
2023/05/18 07:18:30;;;;;;;22.45;6.20;;;;;;;11.32;56.38;101042.59;5022021;28;20033;-76
2023/05/18 07:20:56;;;;;;;11.52;5.45;;;;;;;11.29;55.98;101042.19;5022451;28;20514;-81
2023/05/18 07:23:22;;;;;;;10.65;5.90;;;;;;;11.41;55.99;101047.69;5022767;28;20056;-78
2023/05/18 07:25:47;;;;;;;11.27;4.68;;;;;;;11.30;56.28;101055.63;5022297;28;20960;-77
2023/05/18 07:28:13;;;;;;;10.30;4.70;;;;;;;11.29;56.41;101051.22;5022419;28;20051;-77
2023/05/18 07:30:38;;;;;;;12.45;5.75;;;;;;;11.33;55.95;101043.38;5021714;28;20790;-78
2023/05/18 07:33:04;;;;;;;18.35;6.35;;;;;;;11.37;55.99;101050.03;5022147;28;20068;-79
2023/05/18 07:35:29;;;;;;;11.73;5.63;;;;;;;11.47;55.41;101043.16;5022105;28;20083;-77
2023/05/18 07:37:55;;;;;;;16.80;5.90;;;;;;;11.49;55.35;101041.81;5021510;28;20867;-78
2023/05/18 07:40:20;;;;;;;15.68;5.45;;;;;;;11.38;55.58;101045.41;5020884;28;20033;-76
2023/05/18 07:42:46;;;;;;;20.75;7.63;;;;;;;11.53;54.92;101045.75;5021473;28;20504;-77
2023/05/18 07:45:11;;;;;;;17.02;5.68;;;;;;;11.64;54.50;101038.63;5020251;28;20482;-77
2023/05/18 07:47:37;;;;;;;16.10;5.13;;;;;;;11.65;54.84;101048.44;5021511;28;20532;-77
2023/05/18 07:50:03;;;;;;;15.60;5.28;;;;;;;11.82;54.43;101030.50;5020707;28;20894;-76
2023/05/18 07:52:28;;;;;;;15.27;4.88;;;;;;;11.65;54.64;101029.34;5036216;28;20132;-77
2023/05/18 07:54:56;;;;;;;18.17;6.80;;;;;;;11.72;54.92;101034.66;5021182;28;20041;-77
2023/05/18 07:57:22;;;;;;;10.98;5.18;;;;;;;11.71;55.10;101032.19;5021104;28;20794;-78
2023/05/18 07:59:47;;;;;;;11.95;4.50;;;;;;;11.83;54.47;101033.00;5020816;28;20074;-77
2023/05/18 08:02:15;;;;;;;14.63;6.03;;;;;;;11.87;54.24;101036.06;5020956;28;20088;-77
2023/05/18 08:04:40;;;;;;;15.20;4.65;;;;;;;11.89;53.33;101028.44;5021247;28;20054;-79
2023/05/18 08:07:05;;;;;;;10.85;5.45;;;;;;;11.99;53.65;101030.56;5021096;28;20116;-77
2023/05/18 08:09:31;;;;;;;9.47;4.50;;;;;;;12.02;53.27;101038.28;5020523;28;20087;-77
2023/05/18 08:11:56;;;;;;;9.13;4.63;;;;;;;11.99;53.35;101031.38;5021168;28;20262;-76
2023/05/18 08:14:22;;;;;;;13.90;4.88;;;;;;;12.06;53.49;101022.22;5020746;28;20763;-76
2023/05/18 08:16:47;;;;;;;12.48;4.05;;;;;;;12.02;52.55;101028.16;5021318;28;20049;-78
2023/05/18 08:19:12;;;;;;;10.55;3.92;;;;;;;12.12;52.62;101027.56;5020496;28;20160;-78
2023/05/18 08:21:38;;;;;;;11.93;4.37;;;;;;;12.20;52.45;101028.25;5020993;28;20064;-77
2023/05/18 08:24:03;;;;;;;15.25;4.95;;;;;;;12.26;52.75;101022.63;5020648;28;20313;-78
2023/05/18 08:26:29;;;;;;;11.15;4.28;;;;;;;12.31;52.15;101012.84;5020977;28;20075;-77
2023/05/18 08:28:54;;;;;;;11.32;4.88;;;;;;;12.32;51.46;101020.00;5020299;28;20075;-77
2023/05/18 08:31:20;;;;;;;12.75;4.70;;;;;;;12.34;51.61;101017.84;5020712;28;20041;-77
2023/05/18 08:33:46;;;;;;;10.65;4.95;;;;;;;12.37;51.94;101020.06;5021250;28;20030;-77
2023/05/18 08:36:11;;;;;;;12.25;3.97;;;;;;;12.41;51.84;101012.22;5020737;28;20077;-77
2023/05/18 08:38:36;;;;;;;10.48;3.78;;;;;;;12.44;51.08;101011.72;5020796;28;20037;-78
2023/05/18 08:41:11;;;;;;;8.55;3.38;;;;;;;12.31;50.51;101019.16;5020827;28;20136;-77
2023/05/18 08:43:40;;;;;;;10.00;3.97;;;;;;;12.54;50.18;101011.06;5021058;28;20406;-78
2023/05/18 08:46:32;;;;;;;12.38;4.45;;;;;;;12.62;50.39;101016.13;5020938;28;20164;-78
2023/05/18 08:48:58;;;;;;;14.60;3.85;;;;;;;12.79;50.75;101013.41;5020858;28;20076;-78
2023/05/18 08:51:27;;;;;;;11.88;3.50;;;;;;;12.94;50.36;101018.28;5021048;28;20543;-78
2023/05/18 08:53:53;;;;;;;13.23;4.68;;;;;;;13.06;50.06;101011.88;5020784;28;20053;-78
2023/05/18 08:56:22;;;;;;;11.13;4.88;;;;;;;13.17;50.42;101010.13;5022196;28;20033;-78
2023/05/18 08:58:50;;;;;;;18.05;4.50;;;;;;;13.31;49.62;101014.16;5024214;28;20164;-78
2023/05/18 09:01:16;;;;;;;11.35;3.33;;;;;;;13.42;49.42;101003.34;5023786;28;20514;-78
2023/05/18 09:03:43;;;;;;;10.45;3.35;;;;;;;13.46;48.64;101006.41;5024162;28;20494;-77
2023/05/18 09:06:09;;;;;;;11.30;3.88;;;;;;;13.68;49.09;100994.63;5024049;28;20111;-86
2023/05/18 09:08:35;;;;;;;35.13;5.43;;;;;;;13.82;48.54;100995.91;5024499;28;20042;-82
2023/05/18 09:11:01;;;;;;;15.95;5.40;;;;;;;13.96;47.93;100995.50;5024125;28;20028;-81
2023/05/18 09:13:28;;;;;;;32.08;4.80;;;;;;;13.81;47.45;100994.25;5023786;28;20029;-83
2023/05/18 09:15:53;;;;;;;9.52;4.90;;;;;;;13.84;47.69;100993.75;5024461;28;20057;-83
2023/05/18 09:18:19;;;;;;;22.05;4.55;;;;;;;13.60;49.22;100988.53;5024380;28;20033;-82
2023/05/18 09:20:44;;;;;;;14.32;4.07;;;;;;;13.66;47.21;100983.94;5024710;28;20100;-83
2023/05/18 09:23:11;;;;;;;16.08;4.70;;;;;;;13.67;46.56;100987.50;5024475;28;20029;-83
2023/05/18 09:25:43;;;;;;;14.52;4.72;;;;;;;13.76;46.77;100988.72;5024279;28;20044;-79
2023/05/18 09:28:13;;;;;;;11.90;4.15;;;;;;;13.87;47.33;100995.94;5023470;28;20055;-83
2023/05/18 09:30:42;;;;;;;131.18;12.30;;;;;;;13.80;46.58;100989.03;5024966;28;20055;-84
2023/05/18 09:33:16;;;;;;;11.23;3.92;;;;;;;14.01;46.00;100993.63;5024070;28;20034;-76
2023/05/18 09:35:41;;;;;;;16.42;6.65;;;;;;;14.28;46.99;100991.97;5023731;28;20039;-76
2023/05/18 09:38:07;;;;;;;8.10;3.53;;;;;;;14.42;45.88;100997.06;5022655;28;20033;-77
2023/05/18 09:40:33;;;;;;;9.13;3.17;;;;;;;14.66;45.68;100985.72;5023276;28;20543;-76
2023/05/18 09:43:05;;;;;;;10.27;3.22;;;;;;;14.80;46.53;100986.94;5023345;28;20120;-76
2023/05/18 09:45:31;;;;;;;13.05;3.38;;;;;;;14.88;46.61;100990.28;5023451;28;20025;-76
2023/05/18 09:47:56;;;;;;;8.03;3.20;;;;;;;14.98;45.36;100981.31;5038182;28;20037;-77
2023/05/18 09:50:22;;;;;;;16.33;4.65;;;;;;;15.01;45.37;100978.84;5022828;28;20739;-76
2023/05/18 09:52:48;;;;;;;20.40;5.35;;;;;;;15.14;45.03;100991.28;5023176;28;20326;-74
2023/05/18 09:55:18;;;;;;;10.80;4.55;;;;;;;15.20;44.16;100989.41;5022715;28;20104;-76
2023/05/18 09:57:45;;;;;;;8.65;3.33;;;;;;;15.06;45.37;100983.56;5023207;28;20025;-77
2023/05/18 10:00:12;;;;;;;8.02;3.78;;;;;;;15.21;44.85;100991.06;5022028;28;20053;-78
2023/05/18 10:02:40;;;;;;;16.70;4.47;;;;;;;15.22;44.57;100987.22;5023003;28;20030;-77
2023/05/18 10:05:08;;;;;;;16.58;4.90;;;;;;;14.92;44.62;100983.19;5023004;28;20029;-76
2023/05/18 10:07:34;;;;;;;9.85;3.08;;;;;;;15.12;44.62;100984.41;5022238;28;20048;-79
2023/05/18 10:10:02;;;;;;;15.82;4.35;;;;;;;15.03;46.00;100982.16;5022028;28;20334;-77
2023/05/18 10:12:28;;;;;;;8.38;3.40;;;;;;;15.18;43.27;100980.59;5023208;28;20053;-77
2023/05/18 10:14:53;;;;;;;7.97;3.35;;;;;;;15.42;43.60;100974.66;5022731;28;20057;-76
2023/05/18 10:17:18;;;;;;;11.07;4.53;;;;;;;15.39;42.97;100975.22;5022603;28;20040;-79
2023/05/18 10:19:45;;;;;;;11.35;4.32;;;;;;;15.57;43.16;100967.59;5022286;28;20267;-77
2023/05/18 10:22:15;;;;;;;13.38;4.10;;;;;;;15.81;44.91;100970.69;5022716;28;20122;-87
2023/05/18 10:24:42;;;;;;;21.75;4.40;;;;;;;15.94;43.03;100961.09;5024064;28;20029;-87
2023/05/18 10:27:09;;;;;;;15.27;3.78;;;;;;;15.94;45.22;100963.84;5023735;28;20050;-87
2023/05/18 10:29:36;;;;;;;50.75;7.45;;;;;;;16.09;44.42;100973.22;5024450;28;20034;-86
2023/05/18 10:32:03;;;;;;;13.98;3.20;;;;;;;16.28;44.44;100961.72;5023876;28;20037;-84
2023/05/18 10:34:31;;;;;;;18.20;4.45;;;;;;;16.15;43.70;100966.63;5023951;28;20087;-85
2023/05/18 10:36:58;;;;;;;18.88;5.07;;;;;;;16.22;42.82;100953.47;5024461;28;20123;-84
2023/05/18 10:39:25;;;;;;;12.30;3.65;;;;;;;16.22;42.22;100953.47;5023206;28;20040;-84
2023/05/18 10:41:53;;;;;;;10.65;3.30;;;;;;;16.19;43.54;100953.19;5022189;28;20033;-84
2023/05/18 10:44:20;;;;;;;17.90;3.70;;;;;;;16.29;42.74;100953.16;5023108;28;20581;-83
2023/05/18 10:46:46;;;;;;;14.10;5.60;;;;;;;16.51;42.39;100951.25;5022802;28;20890;-78
2023/05/18 10:49:15;;;;;;;10.50;3.92;;;;;;;16.50;42.97;100947.66;5021495;28;20430;-78
2023/05/18 10:51:45;;;;;;;8.27;3.80;;;;;;;16.73;43.03;100936.34;5022248;28;20410;-77
2023/05/18 10:54:12;;;;;;;9.95;2.67;;;;;;;16.93;42.41;100938.25;5022004;28;20025;-78
2023/05/18 10:56:42;;;;;;;7.57;2.78;;;;;;;16.91;41.94;100941.28;5022257;28;20450;-75
2023/05/18 10:59:09;;;;;;;15.13;3.28;;;;;;;16.97;42.44;100936.59;5021423;28;20063;-75
2023/05/18 11:01:35;;;;;;;11.65;3.78;;;;;;;16.92;40.95;100948.44;5022018;28;20356;-75
2023/05/18 11:04:03;;;;;;;10.45;3.00;;;;;;;16.89;42.40;100949.00;5021675;28;20029;-75
2023/05/18 11:06:29;;;;;;;12.80;4.07;;;;;;;17.05;42.25;100940.69;5021889;28;20103;-74
2023/05/18 11:08:54;;;;;;;6.75;3.00;;;;;;;17.23;42.49;100943.97;5021348;28;20475;-75
2023/05/18 11:11:28;;;;;;;11.63;3.47;;;;;;;17.28;42.31;100946.72;5021607;28;20123;-75
2023/05/18 11:14:00;;;;;;;14.00;2.85;;;;;;;17.42;41.44;100943.34;5022159;28;20698;-74
2023/05/18 11:16:33;;;;;;;10.15;3.63;;;;;;;17.51;39.88;100925.13;5021488;28;20045;-74
2023/05/18 11:19:05;;;;;;;11.50;3.30;;;;;;;17.47;41.86;100924.03;5020645;28;20132;-78
2023/05/18 11:21:50;;;;;;;22.73;4.25;;;;;;;17.65;41.31;100924.50;5021529;28;20030;-80